sensor_id;sensor_type;location;lat;lon;timestamp;temperature;humidity
18729;DHT22;9493;51.884;5.188;2023-06-05T00:00:07;13.30;99.90
18729;DHT22;9493;51.884;5.188;2023-06-05T00:02:35;13.30;99.90
18729;DHT22;9493;51.884;5.188;2023-06-05T00:05:02;13.20;99.90
18729;DHT22;9493;51.884;5.188;2023-06-05T00:07:29;13.20;99.90
18729;DHT22;9493;51.884;5.188;2023-06-05T00:09:56;13.10;99.90
18729;DHT22;9493;51.884;5.188;2023-06-05T00:12:24;13.10;99.90
18729;DHT22;9493;51.884;5.188;2023-06-05T00:14:50;13.20;99.90
18729;DHT22;9493;51.884;5.188;2023-06-05T00:17:17;13.10;99.90
18729;DHT22;9493;51.884;5.188;2023-06-05T00:19:45;12.90;99.90
18729;DHT22;9493;51.884;5.188;2023-06-05T00:22:11;13.00;99.90
18729;DHT22;9493;51.884;5.188;2023-06-05T00:24:38;12.90;99.90
18729;DHT22;9493;51.884;5.188;2023-06-05T00:27:05;12.90;99.90
18729;DHT22;9493;51.884;5.188;2023-06-05T00:29:33;12.80;99.90
18729;DHT22;9493;51.884;5.188;2023-06-05T00:32:00;12.80;99.90
18729;DHT22;9493;51.884;5.188;2023-06-05T00:34:27;12.80;99.90
18729;DHT22;9493;51.884;5.188;2023-06-05T00:36:54;12.70;99.90
18729;DHT22;9493;51.884;5.188;2023-06-05T00:39:20;12.70;99.90
18729;DHT22;9493;51.884;5.188;2023-06-05T00:41:47;12.70;99.90
18729;DHT22;9493;51.884;5.188;2023-06-05T00:44:14;12.60;99.90
18729;DHT22;9493;51.884;5.188;2023-06-05T00:46:43;12.60;99.90
18729;DHT22;9493;51.884;5.188;2023-06-05T00:49:10;12.60;99.90
18729;DHT22;9493;51.884;5.188;2023-06-05T00:51:39;12.50;99.90
18729;DHT22;9493;51.884;5.188;2023-06-05T00:54:07;12.60;99.90
18729;DHT22;9493;51.884;5.188;2023-06-05T00:56:34;12.40;99.90
18729;DHT22;9493;51.884;5.188;2023-06-05T00:59:02;12.40;99.90
18729;DHT22;9493;51.884;5.188;2023-06-05T01:01:29;12.40;99.90
18729;DHT22;9493;51.884;5.188;2023-06-05T01:03:57;12.40;99.90
18729;DHT22;9493;51.884;5.188;2023-06-05T01:06:24;12.40;99.90
18729;DHT22;9493;51.884;5.188;2023-06-05T01:08:52;12.40;99.90
18729;DHT22;9493;51.884;5.188;2023-06-05T01:11:24;12.30;99.90
18729;DHT22;9493;51.884;5.188;2023-06-05T01:13:57;12.30;99.90
18729;DHT22;9493;51.884;5.188;2023-06-05T01:16:28;12.30;99.90
18729;DHT22;9493;51.884;5.188;2023-06-05T01:18:58;12.20;99.90
18729;DHT22;9493;51.884;5.188;2023-06-05T01:21:28;12.20;99.90
18729;DHT22;9493;51.884;5.188;2023-06-05T01:23:57;12.10;99.90
18729;DHT22;9493;51.884;5.188;2023-06-05T01:26:30;12.00;99.90
18729;DHT22;9493;51.884;5.188;2023-06-05T01:29:01;12.10;99.90
18729;DHT22;9493;51.884;5.188;2023-06-05T01:31:30;12.10;99.90
18729;DHT22;9493;51.884;5.188;2023-06-05T01:34:04;12.00;99.90
18729;DHT22;9493;51.884;5.188;2023-06-05T01:36:33;12.00;99.90
18729;DHT22;9493;51.884;5.188;2023-06-05T01:39:03;12.00;99.90
18729;DHT22;9493;51.884;5.188;2023-06-05T01:41:31;11.90;99.90
18729;DHT22;9493;51.884;5.188;2023-06-05T01:44:00;12.00;99.90
18729;DHT22;9493;51.884;5.188;2023-06-05T01:46:27;11.90;99.90
18729;DHT22;9493;51.884;5.188;2023-06-05T01:48:54;11.80;99.90
18729;DHT22;9493;51.884;5.188;2023-06-05T01:51:21;11.80;99.90
18729;DHT22;9493;51.884;5.188;2023-06-05T01:53:48;11.80;99.90
18729;DHT22;9493;51.884;5.188;2023-06-05T01:56:17;11.80;99.90
18729;DHT22;9493;51.884;5.188;2023-06-05T01:58:46;11.70;99.90
18729;DHT22;9493;51.884;5.188;2023-06-05T02:01:13;11.80;99.90
18729;DHT22;9493;51.884;5.188;2023-06-05T02:03:41;11.70;99.90
18729;DHT22;9493;51.884;5.188;2023-06-05T02:06:13;11.60;99.90
18729;DHT22;9493;51.884;5.188;2023-06-05T02:08:41;11.60;99.90
18729;DHT22;9493;51.884;5.188;2023-06-05T02:11:08;11.60;99.90
18729;DHT22;9493;51.884;5.188;2023-06-05T02:13:38;11.60;99.90
18729;DHT22;9493;51.884;5.188;2023-06-05T02:16:09;11.50;99.90
18729;DHT22;9493;51.884;5.188;2023-06-05T02:18:36;11.60;99.90
18729;DHT22;9493;51.884;5.188;2023-06-05T02:21:03;11.50;99.90
18729;DHT22;9493;51.884;5.188;2023-06-05T02:23:31;11.50;99.90
18729;DHT22;9493;51.884;5.188;2023-06-05T02:25:58;11.50;99.90
18729;DHT22;9493;51.884;5.188;2023-06-05T02:28:25;11.40;99.90
18729;DHT22;9493;51.884;5.188;2023-06-05T02:30:54;11.40;99.90
18729;DHT22;9493;51.884;5.188;2023-06-05T02:33:21;11.40;99.90
18729;DHT22;9493;51.884;5.188;2023-06-05T02:35:48;11.30;99.90
18729;DHT22;9493;51.884;5.188;2023-06-05T02:38:15;11.40;99.90
18729;DHT22;9493;51.884;5.188;2023-06-05T02:40:42;11.30;99.90
18729;DHT22;9493;51.884;5.188;2023-06-05T02:43:09;11.40;99.90
18729;DHT22;9493;51.884;5.188;2023-06-05T02:45:36;11.40;99.90
18729;DHT22;9493;51.884;5.188;2023-06-05T02:48:05;11.30;99.90
18729;DHT22;9493;51.884;5.188;2023-06-05T02:50:32;11.40;99.90
18729;DHT22;9493;51.884;5.188;2023-06-05T02:52:58;11.30;99.90
18729;DHT22;9493;51.884;5.188;2023-06-05T02:55:25;11.30;99.90
18729;DHT22;9493;51.884;5.188;2023-06-05T02:57:55;11.30;99.90
18729;DHT22;9493;51.884;5.188;2023-06-05T03:00:23;11.20;99.90
18729;DHT22;9493;51.884;5.188;2023-06-05T03:02:51;11.20;99.90
18729;DHT22;9493;51.884;5.188;2023-06-05T03:05:20;11.20;99.90
18729;DHT22;9493;51.884;5.188;2023-06-05T03:07:50;11.10;99.90
18729;DHT22;9493;51.884;5.188;2023-06-05T03:10:19;11.10;99.90
18729;DHT22;9493;51.884;5.188;2023-06-05T03:12:45;11.10;99.90
18729;DHT22;9493;51.884;5.188;2023-06-05T03:15:12;11.10;99.90
18729;DHT22;9493;51.884;5.188;2023-06-05T03:17:40;11.10;99.90
18729;DHT22;9493;51.884;5.188;2023-06-05T03:20:08;11.20;99.90
18729;DHT22;9493;51.884;5.188;2023-06-05T03:22:37;11.10;99.90
18729;DHT22;9493;51.884;5.188;2023-06-05T03:25:04;11.10;99.90
18729;DHT22;9493;51.884;5.188;2023-06-05T03:27:31;11.00;99.90
18729;DHT22;9493;51.884;5.188;2023-06-05T03:29:58;10.90;99.90
18729;DHT22;9493;51.884;5.188;2023-06-05T03:32:25;11.00;99.90
18729;DHT22;9493;51.884;5.188;2023-06-05T03:34:51;10.90;99.90
18729;DHT22;9493;51.884;5.188;2023-06-05T03:37:18;10.90;99.90
18729;DHT22;9493;51.884;5.188;2023-06-05T03:39:47;10.90;99.90
18729;DHT22;9493;51.884;5.188;2023-06-05T03:42:13;10.90;99.90
18729;DHT22;9493;51.884;5.188;2023-06-05T03:44:40;10.80;99.90
18729;DHT22;9493;51.884;5.188;2023-06-05T03:47:07;10.90;99.90
18729;DHT22;9493;51.884;5.188;2023-06-05T03:49:34;10.90;99.90
18729;DHT22;9493;51.884;5.188;2023-06-05T03:52:01;10.80;99.90
18729;DHT22;9493;51.884;5.188;2023-06-05T03:54:28;11.00;99.90
18729;DHT22;9493;51.884;5.188;2023-06-05T03:57:01;10.90;99.90
18729;DHT22;9493;51.884;5.188;2023-06-05T03:59:28;10.90;99.90
18729;DHT22;9493;51.884;5.188;2023-06-05T04:01:55;10.80;99.90
18729;DHT22;9493;51.884;5.188;2023-06-05T04:04:22;10.90;99.90
18729;DHT22;9493;51.884;5.188;2023-06-05T04:06:53;10.90;99.90
18729;DHT22;9493;51.884;5.188;2023-06-05T04:09:20;10.90;99.90
18729;DHT22;9493;51.884;5.188;2023-06-05T04:11:48;10.90;99.90
18729;DHT22;9493;51.884;5.188;2023-06-05T04:14:17;10.90;99.90
18729;DHT22;9493;51.884;5.188;2023-06-05T04:16:44;10.90;99.90
18729;DHT22;9493;51.884;5.188;2023-06-05T04:19:11;10.90;99.90
18729;DHT22;9493;51.884;5.188;2023-06-05T04:21:39;10.90;99.90
18729;DHT22;9493;51.884;5.188;2023-06-05T04:24:07;10.90;99.90
18729;DHT22;9493;51.884;5.188;2023-06-05T04:26:36;10.80;99.90
18729;DHT22;9493;51.884;5.188;2023-06-05T04:29:03;10.80;99.90
18729;DHT22;9493;51.884;5.188;2023-06-05T04:31:36;10.90;99.90
18729;DHT22;9493;51.884;5.188;2023-06-05T04:34:06;11.10;99.90
18729;DHT22;9493;51.884;5.188;2023-06-05T04:36:34;11.00;99.90
18729;DHT22;9493;51.884;5.188;2023-06-05T04:39:02;11.00;99.90
18729;DHT22;9493;51.884;5.188;2023-06-05T04:41:29;11.00;99.90
18729;DHT22;9493;51.884;5.188;2023-06-05T04:43:58;11.10;99.90
18729;DHT22;9493;51.884;5.188;2023-06-05T04:46:25;11.10;99.90
18729;DHT22;9493;51.884;5.188;2023-06-05T04:48:54;11.20;99.90
18729;DHT22;9493;51.884;5.188;2023-06-05T04:51:23;11.30;99.90
18729;DHT22;9493;51.884;5.188;2023-06-05T04:53:50;11.30;99.90
18729;DHT22;9493;51.884;5.188;2023-06-05T04:56:19;11.20;99.90
18729;DHT22;9493;51.884;5.188;2023-06-05T04:58:47;11.40;99.90
18729;DHT22;9493;51.884;5.188;2023-06-05T05:01:16;11.30;99.90
18729;DHT22;9493;51.884;5.188;2023-06-05T05:03:43;11.40;99.90
18729;DHT22;9493;51.884;5.188;2023-06-05T05:06:14;11.40;99.90
18729;DHT22;9493;51.884;5.188;2023-06-05T05:08:41;11.50;99.90
18729;DHT22;9493;51.884;5.188;2023-06-05T05:11:11;11.50;99.90
18729;DHT22;9493;51.884;5.188;2023-06-05T05:13:37;11.50;99.90
18729;DHT22;9493;51.884;5.188;2023-06-05T05:16:04;11.50;99.90
18729;DHT22;9493;51.884;5.188;2023-06-05T05:18:33;11.60;99.90
18729;DHT22;9493;51.884;5.188;2023-06-05T05:21:00;11.70;99.90
18729;DHT22;9493;51.884;5.188;2023-06-05T05:23:29;11.60;99.90
18729;DHT22;9493;51.884;5.188;2023-06-05T05:25:55;11.60;99.90
18729;DHT22;9493;51.884;5.188;2023-06-05T05:28:22;11.70;99.90
18729;DHT22;9493;51.884;5.188;2023-06-05T05:30:50;11.70;99.90
18729;DHT22;9493;51.884;5.188;2023-06-05T05:33:17;11.80;99.90
18729;DHT22;9493;51.884;5.188;2023-06-05T05:35:44;11.90;99.90
18729;DHT22;9493;51.884;5.188;2023-06-05T05:38:11;12.00;99.90
18729;DHT22;9493;51.884;5.188;2023-06-05T05:40:39;12.10;99.90
18729;DHT22;9493;51.884;5.188;2023-06-05T05:43:06;12.20;99.90
18729;DHT22;9493;51.884;5.188;2023-06-05T05:45:33;12.20;99.90
18729;DHT22;9493;51.884;5.188;2023-06-05T05:48:02;12.20;99.90
18729;DHT22;9493;51.884;5.188;2023-06-05T05:50:28;12.30;99.90
18729;DHT22;9493;51.884;5.188;2023-06-05T05:52:55;12.40;99.90
18729;DHT22;9493;51.884;5.188;2023-06-05T05:55:22;12.50;99.90
18729;DHT22;9493;51.884;5.188;2023-06-05T05:57:50;12.60;99.90
18729;DHT22;9493;51.884;5.188;2023-06-05T06:00:18;12.70;99.90
18729;DHT22;9493;51.884;5.188;2023-06-05T06:02:45;12.70;99.90
18729;DHT22;9493;51.884;5.188;2023-06-05T06:05:12;12.80;99.90
18729;DHT22;9493;51.884;5.188;2023-06-05T06:07:39;12.90;99.90
18729;DHT22;9493;51.884;5.188;2023-06-05T06:10:09;12.90;99.90
18729;DHT22;9493;51.884;5.188;2023-06-05T06:12:37;13.00;99.90
18729;DHT22;9493;51.884;5.188;2023-06-05T06:15:06;13.20;99.90
18729;DHT22;9493;51.884;5.188;2023-06-05T06:17:34;13.20;99.90
18729;DHT22;9493;51.884;5.188;2023-06-05T06:20:01;13.40;99.90
18729;DHT22;9493;51.884;5.188;2023-06-05T06:22:28;13.30;99.90
18729;DHT22;9493;51.884;5.188;2023-06-05T06:24:55;13.50;99.90
18729;DHT22;9493;51.884;5.188;2023-06-05T06:27:22;13.50;99.90
18729;DHT22;9493;51.884;5.188;2023-06-05T06:29:51;13.50;99.90
18729;DHT22;9493;51.884;5.188;2023-06-05T06:32:19;13.60;99.90
18729;DHT22;9493;51.884;5.188;2023-06-05T06:34:46;13.60;99.90
18729;DHT22;9493;51.884;5.188;2023-06-05T06:37:13;13.70;99.90
18729;DHT22;9493;51.884;5.188;2023-06-05T06:39:41;13.70;99.90
18729;DHT22;9493;51.884;5.188;2023-06-05T06:42:08;13.80;99.90
18729;DHT22;9493;51.884;5.188;2023-06-05T06:44:36;13.90;99.90
18729;DHT22;9493;51.884;5.188;2023-06-05T06:47:03;14.10;99.90
18729;DHT22;9493;51.884;5.188;2023-06-05T06:49:33;14.20;99.90
18729;DHT22;9493;51.884;5.188;2023-06-05T06:51:59;14.20;99.90
18729;DHT22;9493;51.884;5.188;2023-06-05T06:54:27;14.40;99.90
18729;DHT22;9493;51.884;5.188;2023-06-05T06:56:55;14.60;99.90
18729;DHT22;9493;51.884;5.188;2023-06-05T06:59:22;14.70;99.90
18729;DHT22;9493;51.884;5.188;2023-06-05T07:02:07;14.90;99.90
18729;DHT22;9493;51.884;5.188;2023-06-05T07:04:36;15.10;99.90
18729;DHT22;9493;51.884;5.188;2023-06-05T07:07:04;15.20;99.90
18729;DHT22;9493;51.884;5.188;2023-06-05T07:09:30;15.30;99.90
18729;DHT22;9493;51.884;5.188;2023-06-05T07:11:57;15.40;99.90
18729;DHT22;9493;51.884;5.188;2023-06-05T07:14:30;15.50;99.90
18729;DHT22;9493;51.884;5.188;2023-06-05T07:16:58;15.80;99.90
18729;DHT22;9493;51.884;5.188;2023-06-05T07:19:25;15.90;99.90
18729;DHT22;9493;51.884;5.188;2023-06-05T07:21:54;16.00;99.90
18729;DHT22;9493;51.884;5.188;2023-06-05T07:24:21;15.90;99.90
18729;DHT22;9493;51.884;5.188;2023-06-05T07:26:50;16.20;99.90
18729;DHT22;9493;51.884;5.188;2023-06-05T07:29:17;16.10;99.90
18729;DHT22;9493;51.884;5.188;2023-06-05T07:31:45;16.30;99.90
18729;DHT22;9493;51.884;5.188;2023-06-05T07:34:12;16.70;99.90
18729;DHT22;9493;51.884;5.188;2023-06-05T07:36:40;16.90;99.90
18729;DHT22;9493;51.884;5.188;2023-06-05T07:39:08;16.90;99.90
18729;DHT22;9493;51.884;5.188;2023-06-05T07:41:37;17.00;99.90
18729;DHT22;9493;51.884;5.188;2023-06-05T07:44:05;17.30;99.90
18729;DHT22;9493;51.884;5.188;2023-06-05T07:46:32;17.50;99.90
18729;DHT22;9493;51.884;5.188;2023-06-05T07:48:58;17.80;99.90
18729;DHT22;9493;51.884;5.188;2023-06-05T07:51:26;17.90;99.90
18729;DHT22;9493;51.884;5.188;2023-06-05T07:53:53;17.90;99.90
18729;DHT22;9493;51.884;5.188;2023-06-05T07:56:21;18.50;99.90
18729;DHT22;9493;51.884;5.188;2023-06-05T07:58:50;18.40;99.90
18729;DHT22;9493;51.884;5.188;2023-06-05T08:01:17;18.50;99.90
18729;DHT22;9493;51.884;5.188;2023-06-05T08:03:46;18.50;99.90
18729;DHT22;9493;51.884;5.188;2023-06-05T08:06:13;18.50;99.90
18729;DHT22;9493;51.884;5.188;2023-06-05T08:08:41;18.70;99.90
18729;DHT22;9493;51.884;5.188;2023-06-05T08:11:08;18.90;99.90
18729;DHT22;9493;51.884;5.188;2023-06-05T08:13:38;18.80;99.90
18729;DHT22;9493;51.884;5.188;2023-06-05T08:16:05;19.00;99.90
18729;DHT22;9493;51.884;5.188;2023-06-05T08:18:31;19.10;99.90
18729;DHT22;9493;51.884;5.188;2023-06-05T08:20:58;19.50;99.90
18729;DHT22;9493;51.884;5.188;2023-06-05T08:23:25;19.80;99.90
18729;DHT22;9493;51.884;5.188;2023-06-05T08:25:53;20.20;99.90
18729;DHT22;9493;51.884;5.188;2023-06-05T08:28:20;20.20;99.90
18729;DHT22;9493;51.884;5.188;2023-06-05T08:30:48;20.60;99.90
18729;DHT22;9493;51.884;5.188;2023-06-05T08:33:17;20.90;99.90
18729;DHT22;9493;51.884;5.188;2023-06-05T08:35:44;21.20;99.90
18729;DHT22;9493;51.884;5.188;2023-06-05T08:38:11;21.30;99.90
18729;DHT22;9493;51.884;5.188;2023-06-05T08:40:39;21.30;99.90
18729;DHT22;9493;51.884;5.188;2023-06-05T08:43:05;21.20;99.90
18729;DHT22;9493;51.884;5.188;2023-06-05T08:45:32;20.90;99.90
18729;DHT22;9493;51.884;5.188;2023-06-05T08:48:01;21.20;99.90
18729;DHT22;9493;51.884;5.188;2023-06-05T08:50:28;21.00;99.90
18729;DHT22;9493;51.884;5.188;2023-06-05T08:52:57;21.40;99.90
18729;DHT22;9493;51.884;5.188;2023-06-05T08:55:25;21.50;99.90
18729;DHT22;9493;51.884;5.188;2023-06-05T08:57:52;21.70;99.90
18729;DHT22;9493;51.884;5.188;2023-06-05T09:00:19;22.10;99.90
18729;DHT22;9493;51.884;5.188;2023-06-05T09:02:47;21.70;99.90
18729;DHT22;9493;51.884;5.188;2023-06-05T09:05:16;22.30;99.90
18729;DHT22;9493;51.884;5.188;2023-06-05T09:07:43;22.40;99.70
18729;DHT22;9493;51.884;5.188;2023-06-05T09:10:23;22.60;99.60
18729;DHT22;9493;51.884;5.188;2023-06-05T09:12:55;22.50;99.30
18729;DHT22;9493;51.884;5.188;2023-06-05T09:15:23;22.60;99.00
18729;DHT22;9493;51.884;5.188;2023-06-05T09:18:02;22.50;98.80
18729;DHT22;9493;51.884;5.188;2023-06-05T09:20:32;22.90;98.40
18729;DHT22;9493;51.884;5.188;2023-06-05T09:23:00;22.70;98.20
18729;DHT22;9493;51.884;5.188;2023-06-05T09:25:48;22.70;98.00
18729;DHT22;9493;51.884;5.188;2023-06-05T09:28:16;23.40;97.90
18729;DHT22;9493;51.884;5.188;2023-06-05T09:30:56;23.50;97.70
18729;DHT22;9493;51.884;5.188;2023-06-05T09:33:24;23.60;97.50
18729;DHT22;9493;51.884;5.188;2023-06-05T09:36:09;23.60;97.30
18729;DHT22;9493;51.884;5.188;2023-06-05T09:38:37;23.50;97.10
18729;DHT22;9493;51.884;5.188;2023-06-05T09:41:04;23.50;97.00
18729;DHT22;9493;51.884;5.188;2023-06-05T09:43:32;23.70;96.70
18729;DHT22;9493;51.884;5.188;2023-06-05T09:45:59;23.70;96.50
18729;DHT22;9493;51.884;5.188;2023-06-05T09:48:26;23.80;96.30
18729;DHT22;9493;51.884;5.188;2023-06-05T09:50:53;23.80;96.20
18729;DHT22;9493;51.884;5.188;2023-06-05T09:53:24;24.10;96.10
18729;DHT22;9493;51.884;5.188;2023-06-05T09:55:51;23.80;95.90
18729;DHT22;9493;51.884;5.188;2023-06-05T09:58:19;23.50;95.70
18729;DHT22;9493;51.884;5.188;2023-06-05T10:00:46;24.00;95.50
18729;DHT22;9493;51.884;5.188;2023-06-05T10:03:17;24.20;95.40
18729;DHT22;9493;51.884;5.188;2023-06-05T10:05:45;24.00;95.20
18729;DHT22;9493;51.884;5.188;2023-06-05T10:08:12;24.70;95.00
18729;DHT22;9493;51.884;5.188;2023-06-05T10:10:41;24.60;95.00
18729;DHT22;9493;51.884;5.188;2023-06-05T10:13:09;24.70;94.90
18729;DHT22;9493;51.884;5.188;2023-06-05T10:15:37;24.60;94.90
18729;DHT22;9493;51.884;5.188;2023-06-05T10:18:05;24.80;94.80
18729;DHT22;9493;51.884;5.188;2023-06-05T10:20:34;25.60;94.60
18729;DHT22;9493;51.884;5.188;2023-06-05T10:23:02;25.30;94.50
18729;DHT22;9493;51.884;5.188;2023-06-05T10:25:30;24.90;94.40
18729;DHT22;9493;51.884;5.188;2023-06-05T10:28:12;24.80;94.30
18729;DHT22;9493;51.884;5.188;2023-06-05T10:31:14;25.00;94.10
18729;DHT22;9493;51.884;5.188;2023-06-05T10:33:55;25.40;94.10
18729;DHT22;9493;51.884;5.188;2023-06-05T10:36:36;25.60;93.80
18729;DHT22;9493;51.884;5.188;2023-06-05T10:39:08;25.30;93.60
18729;DHT22;9493;51.884;5.188;2023-06-05T10:41:35;25.30;93.20
18729;DHT22;9493;51.884;5.188;2023-06-05T10:44:04;25.90;93.00
18729;DHT22;9493;51.884;5.188;2023-06-05T10:46:32;26.10;92.70
18729;DHT22;9493;51.884;5.188;2023-06-05T10:49:12;26.10;92.50
18729;DHT22;9493;51.884;5.188;2023-06-05T10:51:42;26.00;92.30
18729;DHT22;9493;51.884;5.188;2023-06-05T10:54:11;26.10;92.30
18729;DHT22;9493;51.884;5.188;2023-06-05T10:56:58;25.60;92.20
18729;DHT22;9493;51.884;5.188;2023-06-05T10:59:29;26.40;92.10
18729;DHT22;9493;51.884;5.188;2023-06-05T11:02:25;26.60;92.00
18729;DHT22;9493;51.884;5.188;2023-06-05T11:05:03;26.50;91.80
18729;DHT22;9493;51.884;5.188;2023-06-05T11:07:30;26.40;91.60
18729;DHT22;9493;51.884;5.188;2023-06-05T11:10:08;26.60;91.40
18729;DHT22;9493;51.884;5.188;2023-06-05T11:12:55;26.30;91.30
18729;DHT22;9493;51.884;5.188;2023-06-05T11:15:37;26.40;91.10
18729;DHT22;9493;51.884;5.188;2023-06-05T11:18:37;26.20;90.90
18729;DHT22;9493;51.884;5.188;2023-06-05T11:21:05;26.60;90.80
18729;DHT22;9493;51.884;5.188;2023-06-05T11:23:32;27.00;90.80
18729;DHT22;9493;51.884;5.188;2023-06-05T11:26:38;27.10;90.70
18729;DHT22;9493;51.884;5.188;2023-06-05T11:29:11;27.00;90.60
18729;DHT22;9493;51.884;5.188;2023-06-05T11:31:42;26.90;90.40
18729;DHT22;9493;51.884;5.188;2023-06-05T11:34:13;26.80;90.40
18729;DHT22;9493;51.884;5.188;2023-06-05T11:36:40;27.20;90.20
18729;DHT22;9493;51.884;5.188;2023-06-05T11:39:07;27.20;90.10
18729;DHT22;9493;51.884;5.188;2023-06-05T11:41:43;27.70;89.80
18729;DHT22;9493;51.884;5.188;2023-06-05T11:44:11;27.30;89.50
18729;DHT22;9493;51.884;5.188;2023-06-05T11:46:38;27.40;89.30
18729;DHT22;9493;51.884;5.188;2023-06-05T11:49:08;27.10;89.10
18729;DHT22;9493;51.884;5.188;2023-06-05T11:51:36;26.70;88.80
18729;DHT22;9493;51.884;5.188;2023-06-05T11:54:03;26.90;88.70
18729;DHT22;9493;51.884;5.188;2023-06-05T11:56:33;27.20;88.50
18729;DHT22;9493;51.884;5.188;2023-06-05T11:59:00;27.40;88.00
18729;DHT22;9493;51.884;5.188;2023-06-05T12:01:27;27.30;87.60
18729;DHT22;9493;51.884;5.188;2023-06-05T12:04:03;27.80;87.60
18729;DHT22;9493;51.884;5.188;2023-06-05T12:06:32;28.00;87.20
18729;DHT22;9493;51.884;5.188;2023-06-05T12:09:09;28.00;87.20
18729;DHT22;9493;51.884;5.188;2023-06-05T12:11:37;27.70;87.00
18729;DHT22;9493;51.884;5.188;2023-06-05T12:14:04;27.60;87.10
18729;DHT22;9493;51.884;5.188;2023-06-05T12:16:32;27.40;87.30
18729;DHT22;9493;51.884;5.188;2023-06-05T12:19:00;27.40;87.30
18729;DHT22;9493;51.884;5.188;2023-06-05T12:21:27;27.70;87.40
18729;DHT22;9493;51.884;5.188;2023-06-05T12:24:03;28.20;87.30
18729;DHT22;9493;51.884;5.188;2023-06-05T12:26:30;28.00;87.20
18729;DHT22;9493;51.884;5.188;2023-06-05T12:29:04;28.50;87.20
18729;DHT22;9493;51.884;5.188;2023-06-05T12:31:32;28.30;86.80
18729;DHT22;9493;51.884;5.188;2023-06-05T12:33:59;27.90;86.50
18729;DHT22;9493;51.884;5.188;2023-06-05T12:36:26;28.20;86.40
18729;DHT22;9493;51.884;5.188;2023-06-05T12:38:54;28.10;86.30
18729;DHT22;9493;51.884;5.188;2023-06-05T12:41:22;27.80;86.40
18729;DHT22;9493;51.884;5.188;2023-06-05T12:43:59;27.70;86.20
18729;DHT22;9493;51.884;5.188;2023-06-05T12:46:26;27.60;86.30
18729;DHT22;9493;51.884;5.188;2023-06-05T12:48:53;27.40;86.30
18729;DHT22;9493;51.884;5.188;2023-06-05T12:51:20;27.60;86.20
18729;DHT22;9493;51.884;5.188;2023-06-05T12:53:47;27.70;86.00
18729;DHT22;9493;51.884;5.188;2023-06-05T12:56:14;28.30;85.80
18729;DHT22;9493;51.884;5.188;2023-06-05T12:58:43;28.30;85.60
18729;DHT22;9493;51.884;5.188;2023-06-05T13:01:09;27.80;85.30
18729;DHT22;9493;51.884;5.188;2023-06-05T13:03:37;27.70;85.20
18729;DHT22;9493;51.884;5.188;2023-06-05T13:06:04;27.90;85.00
18729;DHT22;9493;51.884;5.188;2023-06-05T13:08:31;27.70;85.00
18729;DHT22;9493;51.884;5.188;2023-06-05T13:10:58;27.80;85.00
18729;DHT22;9493;51.884;5.188;2023-06-05T13:13:24;27.50;85.00
18729;DHT22;9493;51.884;5.188;2023-06-05T13:15:52;27.20;85.30
18729;DHT22;9493;51.884;5.188;2023-06-05T13:18:19;27.50;85.20
18729;DHT22;9493;51.884;5.188;2023-06-05T13:20:46;28.30;85.10
18729;DHT22;9493;51.884;5.188;2023-06-05T13:23:13;28.30;85.00
18729;DHT22;9493;51.884;5.188;2023-06-05T13:25:39;27.90;85.10
18729;DHT22;9493;51.884;5.188;2023-06-05T13:28:06;28.00;85.10
18729;DHT22;9493;51.884;5.188;2023-06-05T13:30:33;28.10;84.80
18729;DHT22;9493;51.884;5.188;2023-06-05T13:33:02;28.10;84.60
18729;DHT22;9493;51.884;5.188;2023-06-05T13:35:29;27.60;84.70
18729;DHT22;9493;51.884;5.188;2023-06-05T13:37:55;28.50;84.80
18729;DHT22;9493;51.884;5.188;2023-06-05T13:40:22;28.50;84.40
18729;DHT22;9493;51.884;5.188;2023-06-05T13:42:52;27.60;84.20
18729;DHT22;9493;51.884;5.188;2023-06-05T13:45:19;27.50;84.30
18729;DHT22;9493;51.884;5.188;2023-06-05T13:47:45;27.80;84.50
18729;DHT22;9493;51.884;5.188;2023-06-05T13:50:14;27.80;84.40
18729;DHT22;9493;51.884;5.188;2023-06-05T13:52:41;28.50;84.40
18729;DHT22;9493;51.884;5.188;2023-06-05T13:55:08;28.00;84.70
18729;DHT22;9493;51.884;5.188;2023-06-05T13:57:35;27.80;84.70
18729;DHT22;9493;51.884;5.188;2023-06-05T14:00:02;27.60;84.90
18729;DHT22;9493;51.884;5.188;2023-06-05T14:02:29;27.20;85.10
18729;DHT22;9493;51.884;5.188;2023-06-05T14:04:56;27.40;85.10
18729;DHT22;9493;51.884;5.188;2023-06-05T14:07:24;27.10;85.20
18729;DHT22;9493;51.884;5.188;2023-06-05T14:09:51;27.10;85.20
18729;DHT22;9493;51.884;5.188;2023-06-05T14:12:17;26.80;85.50
18729;DHT22;9493;51.884;5.188;2023-06-05T14:14:44;26.80;85.40
18729;DHT22;9493;51.884;5.188;2023-06-05T14:17:11;27.60;85.20
18729;DHT22;9493;51.884;5.188;2023-06-05T14:19:38;27.60;85.20
18729;DHT22;9493;51.884;5.188;2023-06-05T14:22:05;27.40;85.30
18729;DHT22;9493;51.884;5.188;2023-06-05T14:24:35;27.30;85.30
18729;DHT22;9493;51.884;5.188;2023-06-05T14:27:02;27.30;85.30
18729;DHT22;9493;51.884;5.188;2023-06-05T14:29:28;27.50;85.30
18729;DHT22;9493;51.884;5.188;2023-06-05T14:31:55;27.60;85.20
18729;DHT22;9493;51.884;5.188;2023-06-05T14:34:22;27.40;85.10
18729;DHT22;9493;51.884;5.188;2023-06-05T14:36:49;27.00;85.20
18729;DHT22;9493;51.884;5.188;2023-06-05T14:39:17;27.30;85.00
18729;DHT22;9493;51.884;5.188;2023-06-05T14:41:46;26.80;84.70
18729;DHT22;9493;51.884;5.188;2023-06-05T14:44:13;27.10;84.30
18729;DHT22;9493;51.884;5.188;2023-06-05T14:46:40;27.30;84.30
18729;DHT22;9493;51.884;5.188;2023-06-05T14:49:07;27.40;84.50
18729;DHT22;9493;51.884;5.188;2023-06-05T14:51:33;27.20;84.20
18729;DHT22;9493;51.884;5.188;2023-06-05T14:54:01;27.30;84.30
18729;DHT22;9493;51.884;5.188;2023-06-05T14:56:27;27.50;84.50
18729;DHT22;9493;51.884;5.188;2023-06-05T14:58:56;27.00;84.80
18729;DHT22;9493;51.884;5.188;2023-06-05T15:01:22;26.80;84.80
18729;DHT22;9493;51.884;5.188;2023-06-05T15:03:49;27.30;84.80
18729;DHT22;9493;51.884;5.188;2023-06-05T15:06:16;27.00;85.20
18729;DHT22;9493;51.884;5.188;2023-06-05T15:08:43;27.40;85.30
18729;DHT22;9493;51.884;5.188;2023-06-05T15:11:09;27.50;85.10
18729;DHT22;9493;51.884;5.188;2023-06-05T15:13:36;26.80;84.90
18729;DHT22;9493;51.884;5.188;2023-06-05T15:16:05;26.90;84.90
18729;DHT22;9493;51.884;5.188;2023-06-05T15:18:32;26.50;84.70
18729;DHT22;9493;51.884;5.188;2023-06-05T15:20:59;26.50;84.70
18729;DHT22;9493;51.884;5.188;2023-06-05T15:23:26;26.40;84.50
18729;DHT22;9493;51.884;5.188;2023-06-05T15:25:52;26.40;84.70
18729;DHT22;9493;51.884;5.188;2023-06-05T15:28:19;26.40;84.90
18729;DHT22;9493;51.884;5.188;2023-06-05T15:30:47;26.10;84.80
18729;DHT22;9493;51.884;5.188;2023-06-05T15:33:15;26.10;84.80
18729;DHT22;9493;51.884;5.188;2023-06-05T15:35:42;26.20;84.60
18729;DHT22;9493;51.884;5.188;2023-06-05T15:38:11;26.30;84.40
18729;DHT22;9493;51.884;5.188;2023-06-05T15:40:38;26.00;84.20
18729;DHT22;9493;51.884;5.188;2023-06-05T15:43:06;25.80;84.10
18729;DHT22;9493;51.884;5.188;2023-06-05T15:45:33;25.70;84.00
18729;DHT22;9493;51.884;5.188;2023-06-05T15:48:01;25.70;83.90
18729;DHT22;9493;51.884;5.188;2023-06-05T15:50:30;25.70;83.90
18729;DHT22;9493;51.884;5.188;2023-06-05T15:52:57;25.70;84.10